sensor_id;sensor_type;location;lat;lon;timestamp;P1;durP1;ratioP1;P2;durP2;ratioP2
65764;SDS011;52915;53.718;19.946;2023-03-01T00:03:55;29.50;;;10.20;;
65764;SDS011;52915;53.718;19.946;2023-03-01T00:09:00;33.50;;;14.40;;
65764;SDS011;52915;53.718;19.946;2023-03-01T00:14:04;35.70;;;14.90;;
65764;SDS011;52915;53.718;19.946;2023-03-01T00:19:19;69.00;;;27.50;;
65764;SDS011;52915;53.718;19.946;2023-03-01T00:24:25;61.30;;;25.20;;
65764;SDS011;52915;53.718;19.946;2023-03-01T00:29:28;64.70;;;22.60;;
65764;SDS011;52915;53.718;19.946;2023-03-01T00:34:32;85.60;;;30.80;;
65764;SDS011;52915;53.718;19.946;2023-03-01T00:39:36;58.50;;;21.40;;
65764;SDS011;52915;53.718;19.946;2023-03-01T00:44:39;42.00;;;14.90;;
65764;SDS011;52915;53.718;19.946;2023-03-01T00:49:43;31.10;;;14.30;;
65764;SDS011;52915;53.718;19.946;2023-03-01T01:02:08;44.90;;;17.30;;
65764;SDS011;52915;53.718;19.946;2023-03-01T01:07:12;59.90;;;22.70;;
65764;SDS011;52915;53.718;19.946;2023-03-01T01:16:46;62.60;;;23.40;;
65764;SDS011;52915;53.718;19.946;2023-03-01T01:21:50;23.80;;;11.80;;
65764;SDS011;52915;53.718;19.946;2023-03-01T01:27:06;50.50;;;20.30;;
65764;SDS011;52915;53.718;19.946;2023-03-01T01:32:10;35.60;;;13.80;;
65764;SDS011;52915;53.718;19.946;2023-03-01T01:44:12;44.40;;;17.90;;
65764;SDS011;52915;53.718;19.946;2023-03-01T01:54:35;39.70;;;16.90;;
65764;SDS011;52915;53.718;19.946;2023-03-01T02:00:10;57.50;;;21.40;;
65764;SDS011;52915;53.718;19.946;2023-03-01T02:05:24;57.00;;;22.00;;
65764;SDS011;52915;53.718;19.946;2023-03-01T02:10:38;54.70;;;21.20;;
65764;SDS011;52915;53.718;19.946;2023-03-01T02:15:43;48.80;;;18.20;;
65764;SDS011;52915;53.718;19.946;2023-03-01T02:26:35;42.60;;;17.70;;
65764;SDS011;52915;53.718;19.946;2023-03-01T02:31:45;35.90;;;15.20;;
65764;SDS011;52915;53.718;19.946;2023-03-01T02:42:04;29.30;;;11.80;;
65764;SDS011;52915;53.718;19.946;2023-03-01T02:47:09;34.80;;;12.90;;
65764;SDS011;52915;53.718;19.946;2023-03-01T02:58:14;50.80;;;18.90;;
65764;SDS011;52915;53.718;19.946;2023-03-01T03:03:20;56.10;;;18.60;;
65764;SDS011;52915;53.718;19.946;2023-03-01T03:08:25;37.80;;;13.40;;
65764;SDS011;52915;53.718;19.946;2023-03-01T03:24:45;27.70;;;11.00;;
65764;SDS011;52915;53.718;19.946;2023-03-01T03:29:52;43.30;;;17.80;;
65764;SDS011;52915;53.718;19.946;2023-03-01T03:34:56;49.10;;;19.30;;
65764;SDS011;52915;53.718;19.946;2023-03-01T03:44:28;21.60;;;8.50;;
65764;SDS011;52915;53.718;19.946;2023-03-01T03:54:42;36.30;;;13.60;;
65764;SDS011;52915;53.718;19.946;2023-03-01T03:59:46;42.10;;;16.90;;
65764;SDS011;52915;53.718;19.946;2023-03-01T04:04:56;38.70;;;15.80;;
65764;SDS011;52915;53.718;19.946;2023-03-01T04:10:01;29.50;;;13.60;;
65764;SDS011;52915;53.718;19.946;2023-03-01T04:15:12;51.40;;;21.30;;
65764;SDS011;52915;53.718;19.946;2023-03-01T04:20:19;31.50;;;13.80;;
65764;SDS011;52915;53.718;19.946;2023-03-01T04:25:31;29.00;;;11.90;;
65764;SDS011;52915;53.718;19.946;2023-03-01T04:37:37;59.70;;;21.30;;
65764;SDS011;52915;53.718;19.946;2023-03-01T04:48:43;50.30;;;17.30;;
65764;SDS011;52915;53.718;19.946;2023-03-01T04:53:47;57.80;;;19.80;;
65764;SDS011;52915;53.718;19.946;2023-03-01T04:58:53;41.10;;;15.80;;
65764;SDS011;52915;53.718;19.946;2023-03-01T05:03:57;30.80;;;12.50;;
65764;SDS011;52915;53.718;19.946;2023-03-01T05:09:06;27.10;;;11.10;;
65764;SDS011;52915;53.718;19.946;2023-03-01T05:14:11;39.10;;;14.50;;
65764;SDS011;52915;53.718;19.946;2023-03-01T05:19:15;42.70;;;13.90;;
65764;SDS011;52915;53.718;19.946;2023-03-01T05:24:18;37.60;;;15.80;;
65764;SDS011;52915;53.718;19.946;2023-03-01T05:29:32;31.10;;;13.90;;
65764;SDS011;52915;53.718;19.946;2023-03-01T05:34:40;20.10;;;9.00;;
65764;SDS011;52915;53.718;19.946;2023-03-01T05:39:46;29.50;;;12.30;;
65764;SDS011;52915;53.718;19.946;2023-03-01T05:44:55;47.60;;;17.80;;
65764;SDS011;52915;53.718;19.946;2023-03-01T05:55:51;34.20;;;13.00;;
65764;SDS011;52915;53.718;19.946;2023-03-01T06:00:55;25.60;;;11.40;;
65764;SDS011;52915;53.718;19.946;2023-03-01T06:05:59;25.00;;;11.30;;
65764;SDS011;52915;53.718;19.946;2023-03-01T06:11:03;34.00;;;11.50;;
65764;SDS011;52915;53.718;19.946;2023-03-01T06:16:08;41.20;;;15.60;;
65764;SDS011;52915;53.718;19.946;2023-03-01T06:28:03;42.80;;;18.20;;
65764;SDS011;52915;53.718;19.946;2023-03-01T06:40:30;36.40;;;17.00;;
65764;SDS011;52915;53.718;19.946;2023-03-01T06:59:33;34.00;;;11.40;;
65764;SDS011;52915;53.718;19.946;2023-03-01T07:09:23;44.60;;;17.80;;
65764;SDS011;52915;53.718;19.946;2023-03-01T07:14:27;49.10;;;19.80;;
65764;SDS011;52915;53.718;19.946;2023-03-01T07:19:40;45.80;;;17.50;;
65764;SDS011;52915;53.718;19.946;2023-03-01T07:24:44;23.90;;;9.30;;
65764;SDS011;52915;53.718;19.946;2023-03-01T07:29:47;29.90;;;11.80;;
65764;SDS011;52915;53.718;19.946;2023-03-01T07:34:51;47.80;;;16.10;;
65764;SDS011;52915;53.718;19.946;2023-03-01T07:40:01;44.70;;;17.80;;
65764;SDS011;52915;53.718;19.946;2023-03-01T07:45:06;48.60;;;15.40;;
65764;SDS011;52915;53.718;19.946;2023-03-01T07:50:22;29.30;;;13.10;;
65764;SDS011;52915;53.718;19.946;2023-03-01T07:55:26;32.20;;;12.70;;
65764;SDS011;52915;53.718;19.946;2023-03-01T08:00:30;28.30;;;12.60;;
65764;SDS011;52915;53.718;19.946;2023-03-01T08:05:34;45.30;;;16.50;;
65764;SDS011;52915;53.718;19.946;2023-03-01T08:11:04;24.60;;;11.20;;
65764;SDS011;52915;53.718;19.946;2023-03-01T08:16:15;57.40;;;21.70;;
65764;SDS011;52915;53.718;19.946;2023-03-01T08:21:19;34.50;;;14.50;;
65764;SDS011;52915;53.718;19.946;2023-03-01T08:26:23;22.20;;;9.00;;
65764;SDS011;52915;53.718;19.946;2023-03-01T08:31:29;36.60;;;15.00;;
65764;SDS011;52915;53.718;19.946;2023-03-01T08:36:43;32.60;;;15.80;;
65764;SDS011;52915;53.718;19.946;2023-03-01T08:41:48;23.30;;;12.10;;
65764;SDS011;52915;53.718;19.946;2023-03-01T08:54:15;15.20;;;7.80;;
65764;SDS011;52915;53.718;19.946;2023-03-01T08:59:21;24.10;;;11.70;;
65764;SDS011;52915;53.718;19.946;2023-03-01T09:10:22;24.90;;;10.50;;
65764;SDS011;52915;53.718;19.946;2023-03-01T09:15:26;29.10;;;12.80;;
65764;SDS011;52915;53.718;19.946;2023-03-01T09:20:31;23.80;;;11.70;;
65764;SDS011;52915;53.718;19.946;2023-03-01T09:25:38;34.60;;;16.50;;
65764;SDS011;52915;53.718;19.946;2023-03-01T09:30:42;40.40;;;20.50;;
65764;SDS011;52915;53.718;19.946;2023-03-01T09:41:57;97.40;;;33.60;;
65764;SDS011;52915;53.718;19.946;2023-03-01T09:47:12;71.70;;;29.00;;
65764;SDS011;52915;53.718;19.946;2023-03-01T09:52:33;43.40;;;18.10;;
65764;SDS011;52915;53.718;19.946;2023-03-01T10:10:00;45.00;;;19.40;;
65764;SDS011;52915;53.718;19.946;2023-03-01T10:15:14;69.50;;;29.70;;
65764;SDS011;52915;53.718;19.946;2023-03-01T10:20:26;95.30;;;38.10;;
65764;SDS011;52915;53.718;19.946;2023-03-01T10:25:54;107.00;;;45.40;;
65764;SDS011;52915;53.718;19.946;2023-03-01T10:37:19;41.80;;;18.90;;
65764;SDS011;52915;53.718;19.946;2023-03-01T10:42:46;42.90;;;18.60;;
65764;SDS011;52915;53.718;19.946;2023-03-01T10:48:17;47.20;;;26.10;;
65764;SDS011;52915;53.718;19.946;2023-03-01T10:53:48;20.70;;;10.50;;
65764;SDS011;52915;53.718;19.946;2023-03-01T10:59:00;26.70;;;12.40;;
65764;SDS011;52915;53.718;19.946;2023-03-01T11:09:18;33.60;;;15.00;;
65764;SDS011;52915;53.718;19.946;2023-03-01T11:14:30;24.90;;;12.60;;
65764;SDS011;52915;53.718;19.946;2023-03-01T11:19:39;25.50;;;12.60;;
65764;SDS011;52915;53.718;19.946;2023-03-01T11:24:51;21.30;;;10.40;;
65764;SDS011;52915;53.718;19.946;2023-03-01T11:30:27;29.50;;;13.80;;
65764;SDS011;52915;53.718;19.946;2023-03-01T11:51:25;20.40;;;10.40;;
65764;SDS011;52915;53.718;19.946;2023-03-01T12:10:25;13.50;;;7.30;;
65764;SDS011;52915;53.718;19.946;2023-03-01T12:38:45;15.90;;;9.10;;
65764;SDS011;52915;53.718;19.946;2023-03-01T12:55:41;21.30;;;12.10;;
65764;SDS011;52915;53.718;19.946;2023-03-01T13:00:59;18.90;;;8.40;;
65764;SDS011;52915;53.718;19.946;2023-03-01T13:11:46;15.50;;;9.10;;
65764;SDS011;52915;53.718;19.946;2023-03-01T13:16:52;17.70;;;9.50;;
65764;SDS011;52915;53.718;19.946;2023-03-01T13:39:40;18.40;;;10.00;;
65764;SDS011;52915;53.718;19.946;2023-03-01T13:50:23;18.10;;;9.30;;
65764;SDS011;52915;53.718;19.946;2023-03-01T13:55:40;12.30;;;9.10;;
65764;SDS011;52915;53.718;19.946;2023-03-01T14:07:23;42.90;;;19.40;;
65764;SDS011;52915;53.718;19.946;2023-03-01T14:13:08;16.20;;;8.70;;
65764;SDS011;52915;53.718;19.946;2023-03-01T14:18:23;13.50;;;7.80;;
65764;SDS011;52915;53.718;19.946;2023-03-01T14:30:57;8.90;;;7.40;;
65764;SDS011;52915;53.718;19.946;2023-03-01T14:42:38;21.80;;;12.90;;
65764;SDS011;52915;53.718;19.946;2023-03-01T14:47:45;9.70;;;7.70;;
65764;SDS011;52915;53.718;19.946;2023-03-01T14:59:35;11.30;;;7.30;;
65764;SDS011;52915;53.718;19.946;2023-03-01T15:05:04;11.60;;;8.00;;
65764;SDS011;52915;53.718;19.946;2023-03-01T15:17:01;16.80;;;10.50;;
65764;SDS011;52915;53.718;19.946;2023-03-01T15:22:14;65.60;;;45.20;;
65764;SDS011;52915;53.718;19.946;2023-03-01T15:34:30;117.40;;;56.80;;
65764;SDS011;52915;53.718;19.946;2023-03-01T15:50:56;181.80;;;88.00;;
65764;SDS011;52915;53.718;19.946;2023-03-01T15:56:30;137.90;;;64.10;;
65764;SDS011;52915;53.718;19.946;2023-03-01T16:07:14;106.30;;;38.90;;
65764;SDS011;52915;53.718;19.946;2023-03-01T16:12:18;136.20;;;53.00;;
65764;SDS011;52915;53.718;19.946;2023-03-01T16:17:24;240.30;;;112.60;;
65764;SDS011;52915;53.718;19.946;2023-03-01T16:22:29;109.10;;;47.10;;
65764;SDS011;52915;53.718;19.946;2023-03-01T16:27:32;46.30;;;22.10;;
65764;SDS011;52915;53.718;19.946;2023-03-01T16:32:40;46.40;;;23.40;;
65764;SDS011;52915;53.718;19.946;2023-03-01T16:42:50;34.70;;;17.00;;
65764;SDS011;52915;53.718;19.946;2023-03-01T16:47:54;27.40;;;13.00;;
65764;SDS011;52915;53.718;19.946;2023-03-01T16:52:58;17.50;;;10.50;;
65764;SDS011;52915;53.718;19.946;2023-03-01T16:58:27;23.70;;;14.20;;
65764;SDS011;52915;53.718;19.946;2023-03-01T17:09:22;45.70;;;24.70;;
65764;SDS011;52915;53.718;19.946;2023-03-01T17:14:26;32.30;;;14.70;;
65764;SDS011;52915;53.718;19.946;2023-03-01T17:19:29;80.40;;;33.30;;
65764;SDS011;52915;53.718;19.946;2023-03-01T17:24:37;189.40;;;64.70;;
65764;SDS011;52915;53.718;19.946;2023-03-01T17:29:43;255.10;;;87.80;;
65764;SDS011;52915;53.718;19.946;2023-03-01T17:49:02;235.30;;;89.80;;
65764;SDS011;52915;53.718;19.946;2023-03-01T17:58:31;231.10;;;91.50;;
65764;SDS011;52915;53.718;19.946;2023-03-01T18:03:35;315.90;;;126.50;;
65764;SDS011;52915;53.718;19.946;2023-03-01T18:08:52;349.80;;;136.10;;
65764;SDS011;52915;53.718;19.946;2023-03-01T18:13:57;535.90;;;218.90;;
65764;SDS011;52915;53.718;19.946;2023-03-01T18:19:02;482.80;;;197.30;;
65764;SDS011;52915;53.718;19.946;2023-03-01T18:31:23;310.90;;;122.10;;
65764;SDS011;52915;53.718;19.946;2023-03-01T18:36:29;271.00;;;108.30;;
65764;SDS011;52915;53.718;19.946;2023-03-01T18:41:36;325.40;;;126.40;;
65764;SDS011;52915;53.718;19.946;2023-03-01T18:46:41;378.70;;;125.30;;
65764;SDS011;52915;53.718;19.946;2023-03-01T18:51:49;357.60;;;116.80;;
65764;SDS011;52915;53.718;19.946;2023-03-01T19:14:49;293.00;;;108.30;;
65764;SDS011;52915;53.718;19.946;2023-03-01T19:37:13;277.10;;;95.30;;
65764;SDS011;52915;53.718;19.946;2023-03-01T19:42:22;545.40;;;223.20;;
65764;SDS011;52915;53.718;19.946;2023-03-01T19:47:30;418.10;;;141.60;;
65764;SDS011;52915;53.718;19.946;2023-03-01T19:52:35;159.60;;;65.40;;
65764;SDS011;52915;53.718;19.946;2023-03-01T19:57:40;251.80;;;97.50;;
65764;SDS011;52915;53.718;19.946;2023-03-01T20:02:45;496.90;;;212.20;;
65764;SDS011;52915;53.718;19.946;2023-03-01T20:14:49;387.80;;;140.50;;
65764;SDS011;52915;53.718;19.946;2023-03-01T20:32:57;105.80;;;40.30;;
65764;SDS011;52915;53.718;19.946;2023-03-01T20:45:05;106.00;;;41.60;;
65764;SDS011;52915;53.718;19.946;2023-03-01T20:50:10;101.10;;;33.50;;
65764;SDS011;52915;53.718;19.946;2023-03-01T20:55:14;97.00;;;36.30;;
65764;SDS011;52915;53.718;19.946;2023-03-01T21:05:58;143.40;;;54.30;;
65764;SDS011;52915;53.718;19.946;2023-03-01T21:14:38;172.00;;;67.00;;
65764;SDS011;52915;53.718;19.946;2023-03-01T21:19:45;147.50;;;62.40;;
65764;SDS011;52915;53.718;19.946;2023-03-01T21:24:55;60.20;;;23.70;;
65764;SDS011;52915;53.718;19.946;2023-03-01T21:29:59;139.50;;;49.90;;
65764;SDS011;52915;53.718;19.946;2023-03-01T21:35:04;102.00;;;46.00;;
65764;SDS011;52915;53.718;19.946;2023-03-01T21:46:15;106.60;;;41.60;;
65764;SDS011;52915;53.718;19.946;2023-03-01T22:05:04;51.00;;;23.50;;
65764;SDS011;52915;53.718;19.946;2023-03-01T22:15:59;130.90;;;50.70;;
65764;SDS011;52915;53.718;19.946;2023-03-01T22:21:06;122.00;;;39.80;;
65764;SDS011;52915;53.718;19.946;2023-03-01T22:31:35;309.40;;;138.10;;
65764;SDS011;52915;53.718;19.946;2023-03-01T22:36:39;112.80;;;49.10;;
65764;SDS011;52915;53.718;19.946;2023-03-01T22:41:45;82.50;;;32.90;;
65764;SDS011;52915;53.718;19.946;2023-03-01T22:46:51;78.70;;;29.30;;
65764;SDS011;52915;53.718;19.946;2023-03-01T22:51:55;140.20;;;48.80;;
65764;SDS011;52915;53.718;19.946;2023-03-01T22:57:02;90.30;;;30.00;;
65764;SDS011;52915;53.718;19.946;2023-03-01T23:02:06;55.00;;;19.30;;
65764;SDS011;52915;53.718;19.946;2023-03-01T23:07:10;36.10;;;14.20;;
65764;SDS011;52915;53.718;19.946;2023-03-01T23:12:14;24.90;;;11.40;;
65764;SDS011;52915;53.718;19.946;2023-03-01T23:24:39;50.20;;;14.30;;
65764;SDS011;52915;53.718;19.946;2023-03-01T23:29:43;15.50;;;6.80;;
65764;SDS011;52915;53.718;19.946;2023-03-01T23:40:42;14.80;;;5.10;;
65764;SDS011;52915;53.718;19.946;2023-03-01T23:45:45;8.80;;;4.60;;
65764;SDS011;52915;53.718;19.946;2023-03-01T23:50:49;11.40;;;4.80;;
65764;SDS011;52915;53.718;19.946;2023-03-01T23:56:23;17.30;;;6.70;;
